sensor_id;sensor_type;location;lat;lon;timestamp;P1;durP1;ratioP1;P2;durP2;ratioP2
42036;SDS011;30340;52.004;5.908;2023-03-01T00:01:50;1.23;;;1.10;;
42036;SDS011;30340;52.004;5.908;2023-03-01T00:04:15;1.17;;;1.00;;
42036;SDS011;30340;52.004;5.908;2023-03-01T00:06:44;1.20;;;1.10;;
42036;SDS011;30340;52.004;5.908;2023-03-01T00:09:11;1.02;;;0.90;;
42036;SDS011;30340;52.004;5.908;2023-03-01T00:11:41;1.75;;;1.10;;
42036;SDS011;30340;52.004;5.908;2023-03-01T00:14:06;1.42;;;1.20;;
42036;SDS011;30340;52.004;5.908;2023-03-01T00:16:33;1.65;;;1.30;;
42036;SDS011;30340;52.004;5.908;2023-03-01T00:19:00;1.17;;;1.00;;
42036;SDS011;30340;52.004;5.908;2023-03-01T00:21:26;0.88;;;0.85;;
42036;SDS011;30340;52.004;5.908;2023-03-01T00:23:53;1.60;;;1.08;;
42036;SDS011;30340;52.004;5.908;2023-03-01T00:26:20;1.45;;;1.25;;
42036;SDS011;30340;52.004;5.908;2023-03-01T00:28:47;1.25;;;1.15;;
42036;SDS011;30340;52.004;5.908;2023-03-01T00:31:14;1.27;;;1.17;;
42036;SDS011;30340;52.004;5.908;2023-03-01T00:33:41;1.40;;;1.30;;
42036;SDS011;30340;52.004;5.908;2023-03-01T00:36:07;1.58;;;1.20;;
42036;SDS011;30340;52.004;5.908;2023-03-01T00:38:40;1.65;;;1.20;;
42036;SDS011;30340;52.004;5.908;2023-03-01T00:41:07;1.80;;;1.48;;
42036;SDS011;30340;52.004;5.908;2023-03-01T00:43:35;1.65;;;1.20;;
42036;SDS011;30340;52.004;5.908;2023-03-01T00:46:07;1.20;;;1.10;;
42036;SDS011;30340;52.004;5.908;2023-03-01T00:48:36;1.27;;;1.05;;
42036;SDS011;30340;52.004;5.908;2023-03-01T00:51:08;1.60;;;1.33;;
42036;SDS011;30340;52.004;5.908;2023-03-01T00:53:45;2.00;;;1.17;;
42036;SDS011;30340;52.004;5.908;2023-03-01T00:56:12;1.60;;;1.50;;
42036;SDS011;30340;52.004;5.908;2023-03-01T00:58:39;1.50;;;1.23;;
42036;SDS011;30340;52.004;5.908;2023-03-01T01:01:12;1.35;;;1.17;;
42036;SDS011;30340;52.004;5.908;2023-03-01T01:03:50;1.73;;;1.35;;
42036;SDS011;30340;52.004;5.908;2023-03-01T01:06:24;2.55;;;1.65;;
42036;SDS011;30340;52.004;5.908;2023-03-01T01:08:52;3.58;;;2.00;;
42036;SDS011;30340;52.004;5.908;2023-03-01T01:11:18;1.63;;;1.52;;
42036;SDS011;30340;52.004;5.908;2023-03-01T01:13:45;2.25;;;1.40;;
42036;SDS011;30340;52.004;5.908;2023-03-01T01:16:12;2.17;;;1.40;;
42036;SDS011;30340;52.004;5.908;2023-03-01T01:18:38;1.30;;;1.20;;
42036;SDS011;30340;52.004;5.908;2023-03-01T01:21:06;2.55;;;1.63;;
42036;SDS011;30340;52.004;5.908;2023-03-01T01:23:33;2.13;;;1.38;;
42036;SDS011;30340;52.004;5.908;2023-03-01T01:26:03;2.05;;;1.52;;
42036;SDS011;30340;52.004;5.908;2023-03-01T01:28:29;2.25;;;1.80;;
42036;SDS011;30340;52.004;5.908;2023-03-01T01:30:55;1.80;;;1.33;;
42036;SDS011;30340;52.004;5.908;2023-03-01T01:33:21;2.17;;;1.60;;
42036;SDS011;30340;52.004;5.908;2023-03-01T01:35:46;2.75;;;1.70;;
42036;SDS011;30340;52.004;5.908;2023-03-01T01:38:12;1.95;;;1.50;;
42036;SDS011;30340;52.004;5.908;2023-03-01T01:40:44;2.63;;;1.80;;
42036;SDS011;30340;52.004;5.908;2023-03-01T01:43:15;2.20;;;1.70;;
42036;SDS011;30340;52.004;5.908;2023-03-01T01:45:46;2.00;;;1.58;;
42036;SDS011;30340;52.004;5.908;2023-03-01T01:48:14;1.70;;;1.58;;
42036;SDS011;30340;52.004;5.908;2023-03-01T01:50:46;2.42;;;1.50;;
42036;SDS011;30340;52.004;5.908;2023-03-01T01:53:23;1.92;;;1.40;;
42036;SDS011;30340;52.004;5.908;2023-03-01T01:55:54;2.83;;;1.83;;
42036;SDS011;30340;52.004;5.908;2023-03-01T01:58:23;1.63;;;1.42;;
42036;SDS011;30340;52.004;5.908;2023-03-01T02:00:50;2.58;;;1.70;;
42036;SDS011;30340;52.004;5.908;2023-03-01T02:03:20;1.58;;;1.42;;
42036;SDS011;30340;52.004;5.908;2023-03-01T02:05:56;2.28;;;1.83;;
42036;SDS011;30340;52.004;5.908;2023-03-01T02:08:37;2.63;;;1.67;;
42036;SDS011;30340;52.004;5.908;2023-03-01T02:11:06;2.15;;;1.65;;
42036;SDS011;30340;52.004;5.908;2023-03-01T02:13:32;2.97;;;2.13;;
42036;SDS011;30340;52.004;5.908;2023-03-01T02:16:02;1.58;;;1.48;;
42036;SDS011;30340;52.004;5.908;2023-03-01T02:18:39;2.45;;;1.73;;
42036;SDS011;30340;52.004;5.908;2023-03-01T02:23:49;2.65;;;1.70;;
42036;SDS011;30340;52.004;5.908;2023-03-01T02:26:19;1.75;;;1.60;;
42036;SDS011;30340;52.004;5.908;2023-03-01T02:28:55;1.52;;;1.40;;
42036;SDS011;30340;52.004;5.908;2023-03-01T02:31:21;1.73;;;1.52;;
42036;SDS011;30340;52.004;5.908;2023-03-01T02:34:06;2.95;;;1.85;;
42036;SDS011;30340;52.004;5.908;2023-03-01T02:36:37;2.95;;;1.90;;
42036;SDS011;30340;52.004;5.908;2023-03-01T02:39:11;3.38;;;1.90;;
42036;SDS011;30340;52.004;5.908;2023-03-01T02:41:47;3.50;;;1.90;;
42036;SDS011;30340;52.004;5.908;2023-03-01T02:44:16;2.20;;;1.60;;
42036;SDS011;30340;52.004;5.908;2023-03-01T02:46:43;1.75;;;1.65;;
42036;SDS011;30340;52.004;5.908;2023-03-01T02:49:45;2.03;;;1.70;;
42036;SDS011;30340;52.004;5.908;2023-03-01T02:57:31;1.50;;;1.40;;
42036;SDS011;30340;52.004;5.908;2023-03-01T02:59:59;2.03;;;1.60;;
42036;SDS011;30340;52.004;5.908;2023-03-01T03:02:32;2.30;;;1.50;;
42036;SDS011;30340;52.004;5.908;2023-03-01T03:07:35;2.22;;;1.60;;
42036;SDS011;30340;52.004;5.908;2023-03-01T03:10:03;2.08;;;1.80;;
42036;SDS011;30340;52.004;5.908;2023-03-01T03:12:30;2.08;;;1.60;;
42036;SDS011;30340;52.004;5.908;2023-03-01T03:14:56;2.33;;;1.58;;
42036;SDS011;30340;52.004;5.908;2023-03-01T03:17:21;2.92;;;1.83;;
42036;SDS011;30340;52.004;5.908;2023-03-01T03:19:47;1.50;;;1.40;;
42036;SDS011;30340;52.004;5.908;2023-03-01T03:22:13;2.05;;;1.70;;
42036;SDS011;30340;52.004;5.908;2023-03-01T03:24:39;1.75;;;1.40;;
42036;SDS011;30340;52.004;5.908;2023-03-01T03:27:05;3.28;;;1.67;;
42036;SDS011;30340;52.004;5.908;2023-03-01T03:29:31;2.17;;;1.60;;
42036;SDS011;30340;52.004;5.908;2023-03-01T03:31:58;2.22;;;1.60;;
42036;SDS011;30340;52.004;5.908;2023-03-01T03:34:23;1.40;;;1.30;;
42036;SDS011;30340;52.004;5.908;2023-03-01T03:36:53;1.58;;;1.20;;
42036;SDS011;30340;52.004;5.908;2023-03-01T03:39:22;1.58;;;1.30;;
42036;SDS011;30340;52.004;5.908;2023-03-01T03:41:48;1.40;;;1.30;;
42036;SDS011;30340;52.004;5.908;2023-03-01T03:44:13;1.92;;;1.30;;
42036;SDS011;30340;52.004;5.908;2023-03-01T03:46:39;1.42;;;1.33;;
42036;SDS011;30340;52.004;5.908;2023-03-01T03:49:05;1.30;;;1.20;;
42036;SDS011;30340;52.004;5.908;2023-03-01T03:51:30;1.10;;;1.10;;
42036;SDS011;30340;52.004;5.908;2023-03-01T03:53:56;1.55;;;1.40;;
42036;SDS011;30340;52.004;5.908;2023-03-01T03:56:21;1.65;;;1.25;;
42036;SDS011;30340;52.004;5.908;2023-03-01T03:58:50;2.22;;;1.50;;
42036;SDS011;30340;52.004;5.908;2023-03-01T04:01:19;1.70;;;1.60;;
42036;SDS011;30340;52.004;5.908;2023-03-01T04:03:44;1.98;;;1.40;;
42036;SDS011;30340;52.004;5.908;2023-03-01T04:06:13;1.50;;;1.40;;
42036;SDS011;30340;52.004;5.908;2023-03-01T04:08:40;1.55;;;1.45;;
42036;SDS011;30340;52.004;5.908;2023-03-01T04:11:05;1.38;;;1.25;;
42036;SDS011;30340;52.004;5.908;2023-03-01T04:13:50;1.60;;;1.50;;
42036;SDS011;30340;52.004;5.908;2023-03-01T04:16:17;1.40;;;1.30;;
42036;SDS011;30340;52.004;5.908;2023-03-01T04:18:43;1.48;;;1.17;;
42036;SDS011;30340;52.004;5.908;2023-03-01T04:21:09;1.40;;;1.20;;
42036;SDS011;30340;52.004;5.908;2023-03-01T04:23:36;3.08;;;1.80;;
42036;SDS011;30340;52.004;5.908;2023-03-01T04:26:02;1.85;;;1.40;;
42036;SDS011;30340;52.004;5.908;2023-03-01T04:28:32;1.65;;;1.30;;
42036;SDS011;30340;52.004;5.908;2023-03-01T04:31:01;1.30;;;1.20;;
42036;SDS011;30340;52.004;5.908;2023-03-01T04:33:37;2.72;;;1.60;;
42036;SDS011;30340;52.004;5.908;2023-03-01T04:36:14;2.97;;;1.20;;
42036;SDS011;30340;52.004;5.908;2023-03-01T04:38:41;1.30;;;1.20;;
42036;SDS011;30340;52.004;5.908;2023-03-01T04:41:08;1.50;;;1.40;;
42036;SDS011;30340;52.004;5.908;2023-03-01T04:43:34;1.95;;;1.48;;
42036;SDS011;30340;52.004;5.908;2023-03-01T04:46:01;1.73;;;1.27;;
42036;SDS011;30340;52.004;5.908;2023-03-01T04:48:29;2.03;;;1.30;;
42036;SDS011;30340;52.004;5.908;2023-03-01T04:50:56;1.30;;;1.20;;
42036;SDS011;30340;52.004;5.908;2023-03-01T04:53:21;1.40;;;1.30;;
42036;SDS011;30340;52.004;5.908;2023-03-01T04:55:47;2.25;;;1.20;;
42036;SDS011;30340;52.004;5.908;2023-03-01T04:58:12;1.52;;;1.42;;
42036;SDS011;30340;52.004;5.908;2023-03-01T05:00:38;1.55;;;1.38;;
42036;SDS011;30340;52.004;5.908;2023-03-01T05:03:03;2.20;;;1.30;;
42036;SDS011;30340;52.004;5.908;2023-03-01T05:05:33;1.38;;;1.23;;
42036;SDS011;30340;52.004;5.908;2023-03-01T05:08:02;1.20;;;1.10;;
42036;SDS011;30340;52.004;5.908;2023-03-01T05:10:30;1.88;;;1.30;;
42036;SDS011;30340;52.004;5.908;2023-03-01T05:12:58;1.83;;;1.30;;
42036;SDS011;30340;52.004;5.908;2023-03-01T05:15:25;1.33;;;1.23;;
42036;SDS011;30340;52.004;5.908;2023-03-01T05:17:51;1.30;;;1.20;;
42036;SDS011;30340;52.004;5.908;2023-03-01T05:20:19;1.10;;;1.00;;
42036;SDS011;30340;52.004;5.908;2023-03-01T05:22:47;1.52;;;1.30;;
42036;SDS011;30340;52.004;5.908;2023-03-01T05:25:13;2.00;;;1.40;;
42036;SDS011;30340;52.004;5.908;2023-03-01T05:27:39;1.40;;;1.27;;
42036;SDS011;30340;52.004;5.908;2023-03-01T05:30:05;1.30;;;1.20;;
42036;SDS011;30340;52.004;5.908;2023-03-01T05:32:39;1.73;;;1.20;;
42036;SDS011;30340;52.004;5.908;2023-03-01T05:35:09;1.48;;;1.30;;
42036;SDS011;30340;52.004;5.908;2023-03-01T05:37:38;1.40;;;1.30;;
42036;SDS011;30340;52.004;5.908;2023-03-01T05:40:14;1.40;;;1.30;;
42036;SDS011;30340;52.004;5.908;2023-03-01T05:42:45;1.23;;;1.13;;
42036;SDS011;30340;52.004;5.908;2023-03-01T05:45:12;1.30;;;1.20;;
42036;SDS011;30340;52.004;5.908;2023-03-01T05:47:39;1.23;;;1.13;;
42036;SDS011;30340;52.004;5.908;2023-03-01T05:50:08;1.20;;;1.00;;
42036;SDS011;30340;52.004;5.908;2023-03-01T05:52:35;1.95;;;1.75;;
42036;SDS011;30340;52.004;5.908;2023-03-01T05:55:01;1.15;;;1.10;;
42036;SDS011;30340;52.004;5.908;2023-03-01T05:57:28;1.73;;;1.52;;
42036;SDS011;30340;52.004;5.908;2023-03-01T05:59:54;1.20;;;1.10;;
42036;SDS011;30340;52.004;5.908;2023-03-01T06:02:19;1.88;;;1.50;;
42036;SDS011;30340;52.004;5.908;2023-03-01T06:04:45;1.27;;;1.17;;
42036;SDS011;30340;52.004;5.908;2023-03-01T06:07:10;1.50;;;1.40;;
42036;SDS011;30340;52.004;5.908;2023-03-01T06:09:36;4.35;;;1.70;;
42036;SDS011;30340;52.004;5.908;2023-03-01T06:12:01;1.65;;;1.40;;
42036;SDS011;30340;52.004;5.908;2023-03-01T06:14:27;1.70;;;1.48;;
42036;SDS011;30340;52.004;5.908;2023-03-01T06:16:52;1.60;;;1.42;;
42036;SDS011;30340;52.004;5.908;2023-03-01T06:19:18;2.35;;;1.65;;
42036;SDS011;30340;52.004;5.908;2023-03-01T06:21:44;2.38;;;1.88;;
42036;SDS011;30340;52.004;5.908;2023-03-01T06:24:09;2.67;;;1.25;;
42036;SDS011;30340;52.004;5.908;2023-03-01T06:26:35;2.75;;;1.60;;
42036;SDS011;30340;52.004;5.908;2023-03-01T06:29:00;1.02;;;1.00;;
42036;SDS011;30340;52.004;5.908;2023-03-01T06:31:26;1.25;;;1.15;;
42036;SDS011;30340;52.004;5.908;2023-03-01T06:33:52;1.58;;;1.30;;
42036;SDS011;30340;52.004;5.908;2023-03-01T06:36:17;1.52;;;1.40;;
42036;SDS011;30340;52.004;5.908;2023-03-01T06:38:45;2.00;;;1.30;;
42036;SDS011;30340;52.004;5.908;2023-03-01T06:41:11;1.63;;;1.10;;
42036;SDS011;30340;52.004;5.908;2023-03-01T06:43:37;1.05;;;1.00;;
42036;SDS011;30340;52.004;5.908;2023-03-01T06:46:05;1.45;;;1.30;;
42036;SDS011;30340;52.004;5.908;2023-03-01T06:48:34;1.67;;;1.33;;
42036;SDS011;30340;52.004;5.908;2023-03-01T06:51:00;1.92;;;1.05;;
42036;SDS011;30340;52.004;5.908;2023-03-01T06:53:26;1.20;;;1.10;;
42036;SDS011;30340;52.004;5.908;2023-03-01T06:55:56;1.30;;;1.10;;
42036;SDS011;30340;52.004;5.908;2023-03-01T06:58:22;2.90;;;1.20;;
42036;SDS011;30340;52.004;5.908;2023-03-01T07:00:48;1.25;;;1.10;;
42036;SDS011;30340;52.004;5.908;2023-03-01T07:03:13;1.33;;;1.10;;
42036;SDS011;30340;52.004;5.908;2023-03-01T07:05:39;1.13;;;1.02;;
42036;SDS011;30340;52.004;5.908;2023-03-01T07:08:05;1.08;;;1.00;;
42036;SDS011;30340;52.004;5.908;2023-03-01T07:10:30;1.00;;;1.00;;
42036;SDS011;30340;52.004;5.908;2023-03-01T07:12:56;1.10;;;1.00;;
42036;SDS011;30340;52.004;5.908;2023-03-01T07:15:23;2.25;;;1.25;;
42036;SDS011;30340;52.004;5.908;2023-03-01T07:17:50;1.00;;;1.00;;
42036;SDS011;30340;52.004;5.908;2023-03-01T07:20:16;1.20;;;1.10;;
42036;SDS011;30340;52.004;5.908;2023-03-01T07:22:43;1.73;;;1.40;;
42036;SDS011;30340;52.004;5.908;2023-03-01T07:25:09;1.48;;;1.35;;
42036;SDS011;30340;52.004;5.908;2023-03-01T07:27:35;1.27;;;1.17;;
42036;SDS011;30340;52.004;5.908;2023-03-01T07:30:01;2.67;;;1.20;;
42036;SDS011;30340;52.004;5.908;2023-03-01T07:32:28;1.45;;;1.20;;
42036;SDS011;30340;52.004;5.908;2023-03-01T07:34:53;1.33;;;1.15;;
42036;SDS011;30340;52.004;5.908;2023-03-01T07:37:19;1.30;;;1.20;;
42036;SDS011;30340;52.004;5.908;2023-03-01T07:39:45;1.48;;;1.30;;
42036;SDS011;30340;52.004;5.908;2023-03-01T07:42:10;1.77;;;1.35;;
42036;SDS011;30340;52.004;5.908;2023-03-01T07:44:36;1.80;;;1.50;;
42036;SDS011;30340;52.004;5.908;2023-03-01T07:47:02;1.77;;;1.50;;
42036;SDS011;30340;52.004;5.908;2023-03-01T07:49:28;1.60;;;1.40;;
42036;SDS011;30340;52.004;5.908;2023-03-01T07:51:54;2.50;;;1.33;;
42036;SDS011;30340;52.004;5.908;2023-03-01T07:54:20;1.40;;;1.30;;
42036;SDS011;30340;52.004;5.908;2023-03-01T07:56:45;1.45;;;1.20;;
42036;SDS011;30340;52.004;5.908;2023-03-01T07:59:11;1.63;;;1.40;;
42036;SDS011;30340;52.004;5.908;2023-03-01T08:01:37;1.80;;;1.20;;
42036;SDS011;30340;52.004;5.908;2023-03-01T08:04:02;1.30;;;1.20;;
42036;SDS011;30340;52.004;5.908;2023-03-01T08:06:31;1.77;;;1.33;;
42036;SDS011;30340;52.004;5.908;2023-03-01T08:08:59;2.38;;;1.50;;
42036;SDS011;30340;52.004;5.908;2023-03-01T08:11:25;1.70;;;1.40;;
42036;SDS011;30340;52.004;5.908;2023-03-01T08:13:53;1.52;;;1.33;;
42036;SDS011;30340;52.004;5.908;2023-03-01T08:16:19;1.38;;;1.20;;
42036;SDS011;30340;52.004;5.908;2023-03-01T08:18:45;2.33;;;1.27;;
42036;SDS011;30340;52.004;5.908;2023-03-01T08:21:12;1.70;;;1.48;;
42036;SDS011;30340;52.004;5.908;2023-03-01T08:23:39;2.15;;;1.40;;
42036;SDS011;30340;52.004;5.908;2023-03-01T08:28:35;2.13;;;1.45;;
42036;SDS011;30340;52.004;5.908;2023-03-01T08:31:01;2.88;;;1.60;;
42036;SDS011;30340;52.004;5.908;2023-03-01T08:33:27;1.80;;;1.45;;
42036;SDS011;30340;52.004;5.908;2023-03-01T08:36:01;1.70;;;1.10;;
42036;SDS011;30340;52.004;5.908;2023-03-01T08:38:28;2.10;;;1.40;;
42036;SDS011;30340;52.004;5.908;2023-03-01T08:40:54;2.47;;;1.75;;
42036;SDS011;30340;52.004;5.908;2023-03-01T08:43:19;2.28;;;1.50;;
42036;SDS011;30340;52.004;5.908;2023-03-01T08:45:45;2.97;;;1.30;;
42036;SDS011;30340;52.004;5.908;2023-03-01T08:48:13;5.45;;;2.35;;
42036;SDS011;30340;52.004;5.908;2023-03-01T08:50:38;5.32;;;2.60;;
42036;SDS011;30340;52.004;5.908;2023-03-01T08:53:04;5.43;;;2.50;;
42036;SDS011;30340;52.004;5.908;2023-03-01T08:55:29;4.38;;;2.75;;
42036;SDS011;30340;52.004;5.908;2023-03-01T08:57:55;4.32;;;2.60;;
42036;SDS011;30340;52.004;5.908;2023-03-01T09:00:22;4.68;;;2.50;;
42036;SDS011;30340;52.004;5.908;2023-03-01T09:02:48;4.35;;;2.40;;
42036;SDS011;30340;52.004;5.908;2023-03-01T09:05:14;2.70;;;2.33;;
42036;SDS011;30340;52.004;5.908;2023-03-01T09:07:39;4.63;;;2.30;;
42036;SDS011;30340;52.004;5.908;2023-03-01T09:10:05;4.63;;;2.55;;
42036;SDS011;30340;52.004;5.908;2023-03-01T09:12:31;4.88;;;2.60;;
42036;SDS011;30340;52.004;5.908;2023-03-01T09:14:56;2.90;;;1.70;;
42036;SDS011;30340;52.004;5.908;2023-03-01T09:17:22;3.70;;;2.10;;
42036;SDS011;30340;52.004;5.908;2023-03-01T09:19:47;4.13;;;1.90;;
42036;SDS011;30340;52.004;5.908;2023-03-01T09:22:13;2.78;;;1.95;;
42036;SDS011;30340;52.004;5.908;2023-03-01T09:24:39;6.10;;;2.00;;
42036;SDS011;30340;52.004;5.908;2023-03-01T09:27:05;2.42;;;1.80;;
42036;SDS011;30340;52.004;5.908;2023-03-01T09:29:33;3.60;;;2.22;;
42036;SDS011;30340;52.004;5.908;2023-03-01T09:32:00;3.28;;;2.15;;
42036;SDS011;30340;52.004;5.908;2023-03-01T09:34:26;3.92;;;2.35;;
42036;SDS011;30340;52.004;5.908;2023-03-01T09:36:51;3.38;;;2.00;;
42036;SDS011;30340;52.004;5.908;2023-03-01T09:39:17;4.38;;;2.38;;
42036;SDS011;30340;52.004;5.908;2023-03-01T09:41:44;3.90;;;2.25;;
42036;SDS011;30340;52.004;5.908;2023-03-01T09:44:16;3.45;;;2.10;;
42036;SDS011;30340;52.004;5.908;2023-03-01T09:46:43;5.70;;;2.75;;
42036;SDS011;30340;52.004;5.908;2023-03-01T09:49:12;4.78;;;2.50;;
42036;SDS011;30340;52.004;5.908;2023-03-01T09:51:42;3.97;;;2.20;;
42036;SDS011;30340;52.004;5.908;2023-03-01T09:54:12;3.15;;;1.88;;
42036;SDS011;30340;52.004;5.908;2023-03-01T09:56:44;5.82;;;2.92;;
42036;SDS011;30340;52.004;5.908;2023-03-01T10:01:58;4.32;;;2.65;;
42036;SDS011;30340;52.004;5.908;2023-03-01T10:10:07;4.80;;;2.53;;
42036;SDS011;30340;52.004;5.908;2023-03-01T10:12:39;5.47;;;3.17;;
42036;SDS011;30340;52.004;5.908;2023-03-01T10:15:19;5.18;;;2.90;;
42036;SDS011;30340;52.004;5.908;2023-03-01T10:17:56;6.53;;;3.20;;
42036;SDS011;30340;52.004;5.908;2023-03-01T10:20:26;7.05;;;3.50;;
42036;SDS011;30340;52.004;5.908;2023-03-01T10:25:44;6.10;;;3.22;;
42036;SDS011;30340;52.004;5.908;2023-03-01T10:31:27;3.95;;;2.13;;
42036;SDS011;30340;52.004;5.908;2023-03-01T10:34:09;3.97;;;2.42;;
42036;SDS011;30340;52.004;5.908;2023-03-01T10:36:38;4.63;;;2.22;;
42036;SDS011;30340;52.004;5.908;2023-03-01T10:39:11;5.35;;;2.38;;
42036;SDS011;30340;52.004;5.908;2023-03-01T10:41:52;3.90;;;2.40;;
42036;SDS011;30340;52.004;5.908;2023-03-01T10:44:40;5.82;;;2.30;;
42036;SDS011;30340;52.004;5.908;2023-03-01T10:47:12;4.32;;;2.38;;
42036;SDS011;30340;52.004;5.908;2023-03-01T10:49:48;4.25;;;2.30;;
42036;SDS011;30340;52.004;5.908;2023-03-01T10:52:37;4.93;;;2.72;;
42036;SDS011;30340;52.004;5.908;2023-03-01T10:55:24;5.25;;;2.13;;
42036;SDS011;30340;52.004;5.908;2023-03-01T11:03:13;3.47;;;1.83;;
42036;SDS011;30340;52.004;5.908;2023-03-01T11:05:54;3.95;;;1.95;;
42036;SDS011;30340;52.004;5.908;2023-03-01T11:08:34;4.68;;;2.50;;
42036;SDS011;30340;52.004;5.908;2023-03-01T11:13:55;4.05;;;2.42;;
42036;SDS011;30340;52.004;5.908;2023-03-01T11:16:28;4.13;;;1.90;;
42036;SDS011;30340;52.004;5.908;2023-03-01T11:18:59;2.58;;;1.73;;
42036;SDS011;30340;52.004;5.908;2023-03-01T11:21:29;2.70;;;1.50;;
42036;SDS011;30340;52.004;5.908;2023-03-01T11:23:58;4.85;;;2.05;;
42036;SDS011;30340;52.004;5.908;2023-03-01T11:26:25;4.80;;;2.28;;
42036;SDS011;30340;52.004;5.908;2023-03-01T11:28:54;4.15;;;2.30;;
42036;SDS011;30340;52.004;5.908;2023-03-01T11:31:23;4.63;;;2.53;;
42036;SDS011;30340;52.004;5.908;2023-03-01T11:38:56;3.63;;;2.25;;
42036;SDS011;30340;52.004;5.908;2023-03-01T11:41:28;3.55;;;2.13;;
42036;SDS011;30340;52.004;5.908;2023-03-01T11:44:01;5.40;;;2.70;;
42036;SDS011;30340;52.004;5.908;2023-03-01T12:06:00;3.95;;;2.20;;
42036;SDS011;30340;52.004;5.908;2023-03-01T12:33:17;4.22;;;2.60;;
42036;SDS011;30340;52.004;5.908;2023-03-01T12:35:58;5.13;;;2.42;;
42036;SDS011;30340;52.004;5.908;2023-03-01T12:41:27;4.47;;;2.00;;
42036;SDS011;30340;52.004;5.908;2023-03-01T12:50:01;3.00;;;1.92;;
42036;SDS011;30340;52.004;5.908;2023-03-01T12:55:23;3.75;;;2.08;;
42036;SDS011;30340;52.004;5.908;2023-03-01T12:57:53;4.85;;;2.65;;
42036;SDS011;30340;52.004;5.908;2023-03-01T13:00:30;3.47;;;2.25;;
42036;SDS011;30340;52.004;5.908;2023-03-01T13:03:26;4.72;;;2.53;;
42036;SDS011;30340;52.004;5.908;2023-03-01T13:06:18;3.22;;;2.22;;
42036;SDS011;30340;52.004;5.908;2023-03-01T13:11:40;4.35;;;2.20;;
42036;SDS011;30340;52.004;5.908;2023-03-01T13:16:46;3.65;;;2.05;;
42036;SDS011;30340;52.004;5.908;2023-03-01T13:19:17;3.75;;;1.88;;
42036;SDS011;30340;52.004;5.908;2023-03-01T13:21:52;4.43;;;2.30;;
42036;SDS011;30340;52.004;5.908;2023-03-01T13:24:39;4.13;;;2.35;;
42036;SDS011;30340;52.004;5.908;2023-03-01T13:29:51;5.18;;;2.88;;
42036;SDS011;30340;52.004;5.908;2023-03-01T13:35:03;3.53;;;2.60;;
42036;SDS011;30340;52.004;5.908;2023-03-01T13:37:44;2.88;;;2.10;;
42036;SDS011;30340;52.004;5.908;2023-03-01T13:42:46;3.30;;;2.22;;
42036;SDS011;30340;52.004;5.908;2023-03-01T13:45:36;3.00;;;1.75;;
42036;SDS011;30340;52.004;5.908;2023-03-01T13:48:15;2.35;;;1.73;;
42036;SDS011;30340;52.004;5.908;2023-03-01T13:51:03;2.63;;;2.17;;
42036;SDS011;30340;52.004;5.908;2023-03-01T13:53:33;3.47;;;2.08;;
42036;SDS011;30340;52.004;5.908;2023-03-01T13:56:12;2.63;;;1.73;;
42036;SDS011;30340;52.004;5.908;2023-03-01T13:58:54;2.80;;;1.95;;
42036;SDS011;30340;52.004;5.908;2023-03-01T14:01:28;4.43;;;1.70;;
42036;SDS011;30340;52.004;5.908;2023-03-01T14:03:56;3.08;;;2.05;;
42036;SDS011;30340;52.004;5.908;2023-03-01T14:06:29;3.00;;;1.98;;
42036;SDS011;30340;52.004;5.908;2023-03-01T14:09:04;6.32;;;2.53;;
42036;SDS011;30340;52.004;5.908;2023-03-01T14:20:12;3.58;;;2.28;;
42036;SDS011;30340;52.004;5.908;2023-03-01T14:22:44;3.53;;;1.90;;
42036;SDS011;30340;52.004;5.908;2023-03-01T14:25:17;3.35;;;1.90;;
42036;SDS011;30340;52.004;5.908;2023-03-01T14:27:50;3.72;;;1.80;;
42036;SDS011;30340;52.004;5.908;2023-03-01T14:30:27;2.38;;;1.58;;
42036;SDS011;30340;52.004;5.908;2023-03-01T14:33:02;2.92;;;1.80;;
42036;SDS011;30340;52.004;5.908;2023-03-01T14:35:32;4.80;;;2.10;;
42036;SDS011;30340;52.004;5.908;2023-03-01T14:38:00;3.30;;;2.30;;
42036;SDS011;30340;52.004;5.908;2023-03-01T14:40:27;2.80;;;1.90;;
42036;SDS011;30340;52.004;5.908;2023-03-01T14:42:56;3.60;;;2.30;;
42036;SDS011;30340;52.004;5.908;2023-03-01T14:45:25;3.92;;;2.00;;
42036;SDS011;30340;52.004;5.908;2023-03-01T14:47:54;3.25;;;1.90;;
42036;SDS011;30340;52.004;5.908;2023-03-01T14:50:24;3.05;;;1.92;;
42036;SDS011;30340;52.004;5.908;2023-03-01T14:52:53;3.40;;;2.40;;
42036;SDS011;30340;52.004;5.908;2023-03-01T14:55:30;3.47;;;1.80;;
42036;SDS011;30340;52.004;5.908;2023-03-01T14:57:59;2.67;;;2.03;;
42036;SDS011;30340;52.004;5.908;2023-03-01T15:00:29;4.07;;;2.42;;
42036;SDS011;30340;52.004;5.908;2023-03-01T15:03:01;3.72;;;1.90;;
42036;SDS011;30340;52.004;5.908;2023-03-01T15:05:34;3.80;;;2.10;;
42036;SDS011;30340;52.004;5.908;2023-03-01T15:08:01;4.55;;;2.13;;
42036;SDS011;30340;52.004;5.908;2023-03-01T15:10:29;3.13;;;1.73;;
42036;SDS011;30340;52.004;5.908;2023-03-01T15:13:09;2.83;;;1.83;;
42036;SDS011;30340;52.004;5.908;2023-03-01T15:18:13;4.32;;;2.70;;
42036;SDS011;30340;52.004;5.908;2023-03-01T15:20:46;3.85;;;2.20;;
42036;SDS011;30340;52.004;5.908;2023-03-01T15:26:05;4.00;;;2.30;;
42036;SDS011;30340;52.004;5.908;2023-03-01T15:28:34;3.28;;;1.80;;
42036;SDS011;30340;52.004;5.908;2023-03-01T15:31:24;3.10;;;1.77;;
42036;SDS011;30340;52.004;5.908;2023-03-01T15:33:51;3.17;;;1.90;;
42036;SDS011;30340;52.004;5.908;2023-03-01T15:36:51;3.30;;;2.00;;
42036;SDS011;30340;52.004;5.908;2023-03-01T15:42:03;2.92;;;1.63;;
42036;SDS011;30340;52.004;5.908;2023-03-01T15:44:30;2.22;;;1.50;;
42036;SDS011;30340;52.004;5.908;2023-03-01T15:46:58;3.40;;;1.90;;
42036;SDS011;30340;52.004;5.908;2023-03-01T15:49:37;3.05;;;2.10;;
42036;SDS011;30340;52.004;5.908;2023-03-01T15:52:14;4.35;;;2.33;;
42036;SDS011;30340;52.004;5.908;2023-03-01T15:55:16;5.55;;;2.50;;
42036;SDS011;30340;52.004;5.908;2023-03-01T15:57:44;2.65;;;2.05;;
42036;SDS011;30340;52.004;5.908;2023-03-01T16:00:10;2.53;;;1.60;;
42036;SDS011;30340;52.004;5.908;2023-03-01T16:02:38;2.22;;;1.60;;
42036;SDS011;30340;52.004;5.908;2023-03-01T16:05:04;3.00;;;1.77;;
42036;SDS011;30340;52.004;5.908;2023-03-01T16:07:30;2.45;;;1.90;;
42036;SDS011;30340;52.004;5.908;2023-03-01T16:09:56;3.15;;;1.63;;
42036;SDS011;30340;52.004;5.908;2023-03-01T16:12:22;2.80;;;1.73;;
42036;SDS011;30340;52.004;5.908;2023-03-01T16:14:49;3.53;;;1.85;;
42036;SDS011;30340;52.004;5.908;2023-03-01T16:17:15;2.15;;;1.50;;
42036;SDS011;30340;52.004;5.908;2023-03-01T16:19:40;2.88;;;1.35;;
42036;SDS011;30340;52.004;5.908;2023-03-01T16:22:06;4.80;;;1.95;;
42036;SDS011;30340;52.004;5.908;2023-03-01T16:24:34;1.73;;;1.45;;
42036;SDS011;30340;52.004;5.908;2023-03-01T16:27:00;2.90;;;1.70;;
42036;SDS011;30340;52.004;5.908;2023-03-01T16:29:26;1.73;;;1.20;;
42036;SDS011;30340;52.004;5.908;2023-03-01T16:31:54;3.65;;;2.10;;
42036;SDS011;30340;52.004;5.908;2023-03-01T16:34:19;3.08;;;1.75;;
42036;SDS011;30340;52.004;5.908;2023-03-01T16:36:46;2.55;;;1.55;;
42036;SDS011;30340;52.004;5.908;2023-03-01T16:39:12;2.70;;;1.63;;
42036;SDS011;30340;52.004;5.908;2023-03-01T16:41:38;2.95;;;1.35;;
42036;SDS011;30340;52.004;5.908;2023-03-01T16:44:03;2.47;;;1.50;;
42036;SDS011;30340;52.004;5.908;2023-03-01T16:46:29;3.08;;;1.70;;
42036;SDS011;30340;52.004;5.908;2023-03-01T16:48:55;2.78;;;1.52;;
42036;SDS011;30340;52.004;5.908;2023-03-01T16:51:21;2.55;;;1.60;;
42036;SDS011;30340;52.004;5.908;2023-03-01T16:53:48;2.13;;;1.42;;
42036;SDS011;30340;52.004;5.908;2023-03-01T16:56:14;1.92;;;1.20;;
42036;SDS011;30340;52.004;5.908;2023-03-01T16:58:41;1.58;;;0.82;;
42036;SDS011;30340;52.004;5.908;2023-03-01T17:01:08;2.80;;;1.63;;
42036;SDS011;30340;52.004;5.908;2023-03-01T17:03:39;1.40;;;1.20;;
42036;SDS011;30340;52.004;5.908;2023-03-01T17:06:06;2.05;;;1.20;;
42036;SDS011;30340;52.004;5.908;2023-03-01T17:08:34;3.17;;;1.40;;